Arklow Mill — EIJD9 — position and weather

sailwx.info

Track history (hours):
 
Tides and Currents Weather Stations Pressure Air Temp Water Temp Dewpoint Dewpoint Depression Visibility Wind Speed Wind Dir Waves Ship Positions

Arklow Mill

Last reported at 2017-Feb-25 06:16 UTC. Time now 2017-Feb-25 13:48 UTC.
Position N 50°13' W 002°53'.

Length 137 m; draft 8.4 m.

Type: Ship. MMSI: 250002022.

Date/timePositionNaut miles runAvg speedWind from/ knotsBaromVisibWave heightAir tempDewpointWater temp
2017-Feb-25 06:16N 50°13' W 002°53'912.6
2017-Feb-25 05:33N 50°11' W 003°07'1212.4
2017-Feb-25 04:33N 50°08' W 003°26'1212.3
2017-Feb-25 03:34N 50°05' W 003°44'1211.8
2017-Feb-25 02:32N 50°03' W 004°03'1311.3
2017-Feb-25 01:23N 50°00' W 004°22'6310.5
2017-Feb-24 19:22N 49°56' W 005°60'14210.3
2017-Feb-24 05:33N 51°08' W 009°13'1211.5
2017-Feb-24 04:34N 51°12' W 009°30'1211.9
2017-Feb-24 03:33N 51°18' W 009°47'1212.1
2017-Feb-24 02:33N 51°25' W 010°03'1211.9
2017-Feb-24 01:33N 51°31' W 010°19'  
Track history (hours):
 
Tides and Currents Weather Stations Pressure Air Temp Water Temp Dewpoint Dewpoint Depression Visibility Wind Speed Wind Dir Waves Ship Positions

Arklow Mill

Last reported at 2017-Feb-25 06:16 UTC. Time now 2017-Feb-25 13:48 UTC.
Position N 50°13' W 002°53'.

Length 137 m; draft 8.4 m.

Type: Ship. MMSI: 250002022.

Date/timePositionNaut miles runAvg speedWind from/ knotsBaromVisibWave heightAir tempDewpointWater temp
2017-Feb-25 06:16N 50°13' W 002°53'912.6
2017-Feb-25 05:33N 50°11' W 003°07'1212.4
2017-Feb-25 04:33N 50°08' W 003°26'1212.3
2017-Feb-25 03:34N 50°05' W 003°44'1211.8
2017-Feb-25 02:32N 50°03' W 004°03'1311.3
2017-Feb-25 01:23N 50°00' W 004°22'6310.5
2017-Feb-24 19:22N 49°56' W 005°60'14210.3
2017-Feb-24 05:33N 51°08' W 009°13'1211.5
2017-Feb-24 04:34N 51°12' W 009°30'1211.9
2017-Feb-24 03:33N 51°18' W 009°47'1212.1
2017-Feb-24 02:33N 51°25' W 010°03'1211.9
2017-Feb-24 01:33N 51°31' W 010°19'  

Dump ship's entire track history